メインページ
METAR-TAF:

METAR-TAF

空港 :

トリブバン国際空港

カトマンズ, ネパール

緯度: 27-42N, 経度: 085-22E, 海抜: 1337m

現時点の気象観測

当レポートは15分前の23:50(UTC)に作成
西の風 6kt
気温 23°C
湿度 94%
気圧 1008 hPa
視程: 8000m
高度800ftの雲はほとんどない
高度3000ftの雲は散在している
高度10000ftの千切れ雲あり

METAR: VNKT 162350Z 28006KT 8000 FEW008 SCT030 BKN100 23/22 Q1008 NOSIG

時間: 05:50 (00:05 UTC)

予報

当レポートは1時間5分前の23:00(UTC)に作成
予報は17日の 00時(UTC)から 17日の 24時(UTC)まで有効
変向風 2kt
視程: 5000m
高度800ftの雲はほとんどない
高度2500ftの雲は散在している
高度10000ftの千切れ雲あり
17日の 03時(UTC)から 17日の 05時(UTC)まで徐々に
南/南東の風 4kt
視程: 7000m
高度1500ftの雲はほとんどない
高度10000ftの雲は散在している
17日の 06時(UTC)から 17日の 08時(UTC)まで徐々に
西/南西の風 8kt
視程: 8000m
高度1500ftの雲はほとんどない
高度3000ftの雲は散在している
高度10000ftの千切れ雲あり
確率 30%
17日の 08時(UTC)から 17日の 12時(UTC)まで
西の風 10kt
視程: 4000m
高度2500ftの雲はほとんどない, 積乱雲.
高度3000ftの雲は散在している
高度10000ftの千切れ雲あり
17日の 13時(UTC)から 17日の 14時(UTC)まで徐々に
変向風 3kt
視程: 7000m
高度1500ftの雲はほとんどない
高度3000ftの雲は散在している
高度10000ftの千切れ雲あり
確率 30%
17日の 14時(UTC)から 17日の 18時(UTC)まで
視程: 4000m
高度2500ftの雲はほとんどない, 積乱雲.
小雨

TAF: VNKT 162300Z 1700/1724 VRB02KT 5000 -RA/BR FEW008 SCT025 BKN100 BECMG 1703/1705 15004KT 7000 FEW015 SCT100 BECMG 1706/1708 24008KT 8000 FEW015 SCT030 BKN100 PROB30 1708/1712 26010KT 4000 -RA/SHRA FEW025CB SCT030 BKN100 BECMG 1713/1714 VRB03KT 7000 FEW015 SCT030 BKN100 PROB30 1714/1718 4000 -RA FEW025CB

4,000以上の空港の気象観測と天気予報(METAR報とTAF報)

利用可能な観測所は地図上に黄色い丸と赤い丸で示す。

丸の上にカーソルを重ねると観測所名を参照できる。

次にクリックすると気象観測と天気予報を参照できる。

マップの切り替え:黒色「×」印の緑ボタンをクリックして拡大、「-」印の緑ボタンをクリックして縮小、緑色の三角印をクリックして隣りの地図に切り替え


METAR-TAF: